createdAt,value
2019-02-16T00:00:59.838Z,27.40
2019-02-16T00:03:50.480Z,24.50
2019-02-16T00:06:39.017Z,24.57
2019-02-16T00:09:28.947Z,22.20
2019-02-16T00:12:18.877Z,23.23
2019-02-16T00:15:07.578Z,31.23
2019-02-16T00:17:57.789Z,25.53
2019-02-16T00:20:46.491Z,27.07
2019-02-16T00:23:35.577Z,24.53
2019-02-16T00:26:31.759Z,23.10
2019-02-16T00:29:20.425Z,26.17
2019-02-16T00:32:11.804Z,26.70
2019-02-16T00:35:00.287Z,29.77
2019-02-16T00:37:49.945Z,26.87
2019-02-16T00:40:39.170Z,25.13
2019-02-16T00:43:28.231Z,21.90
2019-02-16T00:46:17.522Z,21.70
2019-02-16T00:49:08.985Z,25.30
2019-02-16T00:51:59.180Z,22.40
2019-02-16T00:54:48.594Z,26.43
2019-02-16T00:57:40.129Z,30.17
2019-02-16T01:00:29.821Z,24.10
2019-02-16T01:03:19.051Z,22.17
2019-02-16T01:06:08.130Z,24.87
2019-02-16T01:09:02.097Z,26.17
2019-02-16T01:11:51.376Z,31.47
2019-02-16T01:14:40.660Z,27.50
2019-02-16T01:17:29.594Z,26.87
2019-02-16T01:20:20.251Z,27.00
2019-02-16T01:23:12.625Z,24.57
2019-02-16T01:26:01.890Z,22.53
2019-02-16T01:28:50.666Z,22.63
2019-02-16T01:31:41.548Z,23.60
2019-02-16T01:34:30.067Z,23.03
2019-02-16T01:37:19.027Z,24.63
2019-02-16T01:40:10.313Z,21.90
2019-02-16T01:42:59.527Z,22.10
2019-02-16T01:45:48.642Z,21.37
2019-02-16T01:48:37.797Z,23.10
2019-02-16T01:51:31.841Z,24.30
2019-02-16T01:54:19.213Z,21.07
2019-02-16T01:57:08.386Z,23.30
2019-02-16T01:59:56.740Z,23.20
2019-02-16T02:02:47.082Z,26.07
2019-02-16T02:05:36.766Z,30.10
2019-02-16T02:08:25.872Z,22.13
2019-02-16T02:11:14.612Z,28.67
2019-02-16T02:14:02.889Z,26.03
2019-02-16T02:16:51.474Z,30.47
2019-02-16T02:19:42.898Z,34.10
2019-02-16T02:22:31.818Z,26.70
2019-02-16T02:25:21.165Z,34.00
2019-02-16T02:28:10.461Z,22.00
2019-02-16T02:30:59.730Z,25.67
2019-02-16T02:33:48.664Z,18.57
2019-02-16T02:36:39.659Z,19.70
2019-02-16T02:39:28.457Z,20.57
2019-02-16T02:42:17.665Z,27.47
2019-02-16T02:45:10.222Z,24.33
2019-02-16T02:48:00.614Z,21.30
2019-02-16T02:50:49.500Z,22.10
2019-02-16T02:53:38.584Z,24.53
2019-02-16T02:56:27.857Z,23.23
2019-02-16T02:59:16.997Z,21.50
2019-02-16T03:02:09.964Z,17.47
2019-02-16T03:04:59.044Z,27.63
2019-02-16T03:07:48.110Z,20.00
2019-02-16T03:10:36.568Z,27.33
2019-02-16T03:13:25.251Z,16.30
2019-02-16T03:16:16.558Z,18.83
2019-02-16T03:19:05.661Z,15.40
2019-02-16T03:22:02.435Z,19.60
2019-02-16T03:24:45.562Z,20.10
2019-02-16T03:28:03.539Z,15.73
2019-02-16T03:31:26.114Z,17.57
2019-02-16T03:34:18.859Z,19.07
2019-02-16T03:37:56.895Z,20.30
2019-02-16T03:40:49.150Z,21.17
2019-02-16T03:43:39.186Z,19.93
2019-02-16T03:46:28.307Z,20.13
2019-02-16T03:49:19.462Z,24.70
2019-02-16T03:52:13.936Z,26.97
2019-02-16T03:54:59.867Z,25.30
2019-02-16T03:57:48.969Z,25.50
2019-02-16T04:00:37.903Z,28.13
2019-02-16T04:03:30.294Z,27.60
2019-02-16T04:06:19.303Z,25.93
2019-02-16T04:09:08.397Z,30.50
2019-02-16T04:11:57.628Z,23.27
2019-02-16T04:14:46.668Z,23.63
2019-02-16T04:17:36.483Z,20.50
2019-02-16T04:20:27.825Z,22.97
2019-02-16T04:23:17.912Z,24.33
2019-02-16T04:26:08.795Z,25.73
2019-02-16T04:28:57.951Z,25.87
2019-02-16T04:31:48.938Z,21.40
2019-02-16T04:34:38.210Z,23.83
2019-02-16T04:37:29.013Z,23.60
2019-02-16T04:40:18.151Z,26.27
2019-02-16T04:43:07.278Z,18.80
2019-02-16T04:45:56.482Z,21.20
2019-02-16T04:48:47.112Z,21.53
2019-02-16T04:51:36.078Z,24.83
2019-02-16T04:54:29.817Z,20.53
2019-02-16T04:57:19.032Z,20.80
2019-02-16T05:00:09.070Z,25.37
2019-02-16T05:02:57.654Z,22.50
2019-02-16T05:05:48.704Z,21.10
2019-02-16T05:08:37.773Z,21.07
2019-02-16T05:11:27.673Z,19.43
2019-02-16T05:14:16.643Z,17.90
2019-02-16T05:17:05.189Z,17.07
2019-02-16T05:19:53.924Z,14.77
2019-02-16T05:22:44.897Z,14.00
2019-02-16T05:25:34.510Z,13.60
2019-02-16T05:28:23.351Z,10.50
2019-02-16T05:31:12.623Z,16.63
2019-02-16T05:34:02.100Z,19.93
2019-02-16T05:36:51.230Z,18.40
2019-02-16T05:39:42.867Z,14.30
2019-02-16T05:42:32.264Z,11.80
2019-02-16T05:45:24.061Z,11.70
2019-02-16T05:48:13.256Z,13.50
2019-02-16T05:51:02.017Z,13.83
2019-02-16T05:53:50.830Z,11.03
2019-02-16T05:56:39.831Z,17.30
2019-02-16T05:59:28.729Z,14.17
2019-02-16T06:02:20.355Z,11.10
2019-02-16T06:05:10.031Z,17.23
2019-02-16T06:07:59.485Z,18.20
2019-02-16T06:10:48.466Z,17.90
2019-02-16T06:13:37.959Z,15.17
2019-02-16T06:16:28.552Z,12.53
2019-02-16T06:19:17.653Z,14.63
2019-02-16T06:22:07.194Z,20.10
2019-02-16T06:24:56.226Z,18.47
2019-02-16T06:27:45.116Z,22.83
2019-02-16T06:30:33.602Z,20.20
2019-02-16T06:33:23.964Z,19.70
2019-02-16T06:36:28.692Z,20.87
2019-02-16T06:39:18.112Z,18.43
2019-02-16T06:42:08.137Z,20.73
2019-02-16T06:44:57.683Z,18.90
2019-02-16T06:47:46.711Z,23.67
2019-02-16T06:50:37.160Z,18.77
2019-02-16T06:53:26.653Z,18.30
2019-02-16T06:56:43.720Z,16.97
2019-02-16T06:59:32.411Z,22.60
2019-02-16T07:02:21.952Z,21.07
2019-02-16T07:05:10.568Z,18.20
2019-02-16T07:08:02.044Z,18.70
2019-02-16T07:10:52.103Z,23.13
2019-02-16T07:13:41.597Z,25.77
2019-02-16T07:16:52.057Z,22.20
2019-02-16T07:19:46.468Z,17.47
2019-02-16T07:22:35.485Z,20.60
2019-02-16T07:25:26.050Z,19.73
2019-02-16T07:28:15.422Z,17.17
2019-02-16T07:31:04.427Z,27.67
2019-02-16T07:33:53.626Z,21.67
2019-02-16T07:36:44.334Z,27.40
2019-02-16T07:39:34.445Z,27.73
2019-02-16T07:42:32.552Z,19.80
2019-02-16T07:45:50.314Z,22.57
2019-02-16T07:48:59.331Z,21.97
2019-02-16T07:51:59.208Z,21.83
2019-02-16T07:55:21.817Z,16.57
2019-02-16T07:58:15.299Z,23.97
2019-02-16T08:01:23.030Z,16.50
2019-02-16T08:04:30.607Z,18.57
2019-02-16T08:07:36.307Z,17.20
2019-02-16T08:10:36.880Z,18.70
2019-02-16T08:13:53.360Z,18.37
2019-02-16T08:17:19.731Z,19.43
2019-02-16T08:20:31.808Z,17.03
2019-02-16T08:23:52.467Z,20.33
2019-02-16T08:26:59.623Z,15.23
2019-02-16T08:30:04.195Z,17.10
2019-02-16T08:33:11.200Z,22.83
2019-02-16T08:36:17.871Z,29.50
2019-02-16T08:39:48.485Z,22.97
2019-02-16T08:43:04.499Z,20.60
2019-02-16T08:46:10.335Z,24.70
2019-02-16T08:49:24.340Z,22.87
2019-02-16T08:52:47.470Z,21.13
2019-02-16T08:55:54.563Z,22.90
2019-02-16T08:58:54.527Z,23.20
2019-02-16T09:02:14.755Z,21.57
2019-02-16T09:05:27.554Z,27.83
2019-02-16T09:08:29.459Z,21.00
2019-02-16T09:11:49.768Z,17.63
2019-02-16T09:15:04.378Z,22.90
2019-02-16T09:18:14.650Z,29.20
2019-02-16T09:21:33.605Z,22.43
2019-02-16T09:24:44.189Z,24.93
2019-02-16T09:27:41.768Z,22.73
2019-02-16T09:31:01.744Z,24.80
2019-02-16T09:34:08.887Z,23.97
2019-02-16T09:37:07.197Z,19.87
2019-02-16T09:40:05.102Z,27.53
2019-02-16T09:43:09.431Z,29.40
2019-02-16T09:46:19.799Z,21.30
2019-02-16T09:49:27.596Z,21.80
2019-02-16T09:52:33.898Z,19.80
2019-02-16T09:55:36.063Z,23.33
2019-02-16T09:58:46.728Z,21.10
2019-02-16T10:01:43.980Z,20.40
2019-02-16T10:04:55.147Z,22.10
2019-02-16T10:08:11.927Z,26.43
2019-02-16T10:11:32.671Z,25.87
2019-02-16T10:14:45.971Z,25.50
2019-02-16T10:17:59.314Z,21.13
2019-02-16T10:21:08.398Z,29.13
2019-02-16T10:24:17.535Z,20.90
2019-02-16T10:27:22.213Z,20.97
2019-02-16T10:30:27.346Z,26.70
2019-02-16T10:33:30.393Z,25.00
2019-02-16T10:36:48.363Z,22.67
2019-02-16T10:39:56.243Z,24.50
2019-02-16T10:43:01.936Z,21.77
2019-02-16T10:46:08.902Z,20.57
2019-02-16T10:49:26.034Z,17.13
2019-02-16T10:52:46.014Z,21.97
2019-02-16T10:55:52.874Z,17.43
2019-02-16T10:59:07.161Z,18.93
2019-02-16T11:02:06.687Z,17.73
2019-02-16T11:05:14.194Z,18.63
2019-02-16T11:08:37.495Z,18.77
2019-02-16T11:11:47.196Z,19.30
2019-02-16T11:14:54.085Z,17.43
2019-02-16T11:18:14.462Z,23.40
2019-02-16T11:21:26.320Z,14.37
2019-02-16T11:24:43.477Z,17.50
2019-02-16T11:27:49.884Z,20.40
2019-02-16T11:31:06.089Z,22.60
2019-02-16T11:34:20.196Z,18.30
2019-02-16T11:37:20.490Z,19.70
2019-02-16T11:40:28.544Z,18.77
2019-02-16T11:43:45.009Z,16.47
2019-02-16T11:46:52.865Z,19.77
2019-02-16T11:49:55.354Z,16.37
2019-02-16T11:53:01.977Z,17.77
2019-02-16T11:56:01.546Z,19.60
2019-02-16T11:59:14.152Z,18.80
2019-02-16T12:02:39.745Z,17.00
2019-02-16T12:05:47.830Z,21.93
2019-02-16T12:08:55.215Z,15.43
2019-02-16T12:11:52.595Z,19.70
2019-02-16T12:14:58.331Z,19.80
2019-02-16T12:18:01.839Z,22.27
2019-02-16T12:21:23.942Z,21.87
2019-02-16T12:24:38.052Z,16.83
2019-02-16T12:27:58.569Z,16.90
2019-02-16T12:31:15.228Z,21.33
2019-02-16T12:34:28.802Z,22.67
2019-02-16T12:37:30.301Z,18.73
2019-02-16T12:40:38.212Z,19.13
2019-02-16T12:43:54.442Z,21.83
2019-02-16T12:46:58.645Z,20.60
2019-02-16T12:50:18.438Z,20.57
2019-02-16T12:53:38.817Z,20.80
2019-02-16T12:56:37.049Z,22.40
2019-02-16T12:59:44.662Z,22.80
2019-02-16T13:03:01.702Z,25.13
2019-02-16T13:05:57.257Z,19.77
2019-02-16T13:09:00.007Z,19.37
2019-02-16T13:12:13.251Z,22.20
2019-02-16T13:15:21.014Z,23.33
2019-02-16T13:18:33.599Z,26.00
2019-02-16T13:21:45.041Z,20.27
2019-02-16T13:24:43.443Z,18.93
2019-02-16T13:27:50.605Z,19.57
2019-02-16T13:31:01.880Z,18.80
2019-02-16T13:34:08.831Z,24.40
2019-02-16T13:37:13.420Z,20.87
2019-02-16T13:40:14.445Z,20.53
2019-02-16T13:43:15.817Z,22.40
2019-02-16T13:46:27.381Z,36.90
2019-02-16T13:49:38.123Z,23.40
2019-02-16T13:52:57.440Z,23.43
2019-02-16T13:56:05.198Z,24.83
2019-02-16T13:59:18.826Z,28.43
2019-02-16T14:02:19.722Z,24.97
2019-02-16T14:05:40.048Z,25.23
2019-02-16T14:08:55.008Z,19.87
2019-02-16T14:12:11.662Z,20.90
2019-02-16T14:15:24.277Z,22.63
2019-02-16T14:18:12.784Z,19.53
2019-02-16T14:21:01.838Z,18.13
2019-02-16T14:23:50.747Z,19.67
2019-02-16T14:26:40.745Z,23.70
2019-02-16T14:29:29.772Z,17.67
2019-02-16T14:32:18.966Z,18.50
2019-02-16T14:35:08.334Z,19.40
2019-02-16T14:38:14.651Z,22.50
2019-02-16T14:41:03.831Z,17.47
2019-02-16T14:43:53.221Z,19.37
2019-02-16T14:46:42.722Z,19.93
2019-02-16T14:49:31.632Z,18.53
2019-02-16T14:52:20.389Z,18.23
2019-02-16T14:55:11.565Z,19.33
2019-02-16T14:58:02.888Z,17.03
2019-02-16T15:00:52.399Z,18.30
2019-02-16T15:03:43.975Z,18.60
2019-02-16T15:06:33.222Z,20.07
2019-02-16T15:09:22.484Z,17.80
2019-02-16T15:12:12.816Z,17.57
2019-02-16T15:15:01.208Z,21.50
2019-02-16T15:17:50.265Z,17.97
2019-02-16T15:20:41.409Z,16.03
2019-02-16T15:23:38.559Z,20.70
2019-02-16T15:26:28.834Z,15.97
2019-02-16T15:29:18.236Z,16.63
2019-02-16T15:32:07.976Z,16.37
2019-02-16T15:34:57.703Z,15.30
2019-02-16T15:37:46.461Z,18.93
2019-02-16T15:40:35.377Z,18.43
2019-02-16T15:43:24.166Z,17.20
2019-02-16T15:46:13.000Z,19.40
2019-02-16T15:49:02.217Z,18.27
2019-02-16T15:51:51.786Z,16.43
2019-02-16T15:54:43.876Z,20.33
2019-02-16T15:57:33.562Z,16.50
2019-02-16T16:00:30.414Z,22.20
2019-02-16T16:03:19.891Z,18.93
2019-02-16T16:06:10.300Z,21.30
2019-02-16T16:09:37.246Z,19.17
2019-02-16T16:12:41.679Z,17.97
2019-02-16T16:15:49.079Z,19.33
2019-02-16T16:18:54.119Z,21.20
2019-02-16T16:22:05.069Z,26.90
2019-02-16T16:25:13.352Z,22.57
2019-02-16T16:28:36.103Z,19.47
2019-02-16T16:31:44.460Z,27.73
2019-02-16T16:35:01.906Z,22.73
2019-02-16T16:38:12.138Z,23.87
2019-02-16T16:41:21.582Z,27.50
2019-02-16T16:44:32.319Z,23.20
2019-02-16T16:47:52.102Z,23.80
2019-02-16T16:50:56.267Z,22.97
2019-02-16T16:53:57.916Z,27.10
2019-02-16T16:57:12.975Z,27.73
2019-02-16T17:00:19.914Z,25.60
2019-02-16T17:03:34.113Z,23.17
2019-02-16T17:06:36.141Z,23.53
2019-02-16T17:09:47.504Z,27.30
2019-02-16T17:12:46.908Z,23.43
2019-02-16T17:15:55.136Z,22.80
2019-02-16T17:18:55.373Z,24.60
2019-02-16T17:22:01.544Z,25.10
2019-02-16T17:25:22.417Z,24.13
2019-02-16T17:28:30.656Z,23.30
2019-02-16T17:31:48.851Z,24.30
2019-02-16T17:34:47.311Z,24.30
2019-02-16T17:38:04.789Z,21.60
2019-02-16T17:41:12.693Z,24.97
2019-02-16T17:44:29.236Z,32.17
2019-02-16T17:47:41.484Z,26.10
2019-02-16T17:50:44.548Z,26.90
2019-02-16T17:53:55.695Z,26.07
2019-02-16T17:57:13.051Z,24.90
2019-02-16T18:00:07.123Z,26.20
2019-02-16T18:03:24.580Z,28.03
2019-02-16T18:06:20.873Z,25.23
2019-02-16T18:09:26.974Z,27.13
2019-02-16T18:12:42.870Z,26.43
2019-02-16T18:15:40.981Z,25.73
2019-02-16T18:18:45.540Z,26.03
2019-02-16T18:21:48.120Z,30.33
2019-02-16T18:24:55.539Z,73.07
2019-02-16T18:28:10.113Z,76.73
2019-02-16T18:31:36.815Z,75.93
2019-02-16T18:34:44.287Z,51.87
2019-02-16T18:37:57.563Z,42.93
2019-02-16T18:41:17.305Z,40.60
2019-02-16T18:44:28.261Z,36.97
2019-02-16T18:47:27.370Z,31.73
2019-02-16T18:50:27.919Z,34.97
2019-02-16T18:53:54.025Z,42.53
2019-02-16T18:57:07.424Z,32.93
2019-02-16T19:00:12.273Z,34.60
2019-02-16T19:03:15.845Z,30.30
2019-02-16T19:06:42.714Z,35.40
2019-02-16T19:09:48.967Z,36.47
2019-02-16T19:12:57.585Z,35.83
2019-02-16T19:16:21.147Z,35.37
2019-02-16T19:19:44.191Z,35.97
2019-02-16T19:22:50.527Z,33.43
2019-02-16T19:25:47.237Z,59.33
2019-02-16T19:28:59.090Z,41.20
2019-02-16T19:31:53.693Z,45.80
2019-02-16T19:34:58.366Z,46.43
2019-02-16T19:37:55.909Z,54.80
2019-02-16T19:40:52.664Z,60.63
2019-02-16T19:43:50.055Z,57.83
2019-02-16T19:46:56.492Z,52.87
2019-02-16T19:50:03.075Z,56.30
2019-02-16T19:53:03.095Z,49.90
2019-02-16T19:56:13.585Z,54.53
2019-02-16T19:59:21.949Z,53.30
2019-02-16T20:02:44.865Z,48.33
2019-02-16T20:06:07.668Z,43.03
2019-02-16T20:09:24.426Z,44.83
2019-02-16T20:12:38.538Z,51.77
2019-02-16T20:15:44.565Z,45.83
2019-02-16T20:18:56.319Z,63.33
2019-02-16T20:22:10.925Z,51.03
2019-02-16T20:25:15.826Z,46.57
2019-02-16T20:28:27.474Z,47.87
2019-02-16T20:31:23.530Z,50.17
2019-02-16T20:34:41.210Z,50.63
2019-02-16T20:37:44.076Z,48.10
2019-02-16T20:40:41.038Z,45.97
2019-02-16T20:43:49.312Z,55.17
2019-02-16T20:47:03.009Z,47.50
2019-02-16T20:50:19.778Z,48.60
2019-02-16T20:53:26.007Z,50.53
2019-02-16T20:56:24.219Z,43.57
2019-02-16T20:59:47.547Z,48.00
2019-02-16T21:02:47.995Z,46.20
2019-02-16T21:05:55.037Z,42.50
2019-02-16T21:09:02.207Z,38.03
2019-02-16T21:11:59.582Z,46.60
2019-02-16T21:15:03.436Z,49.10
2019-02-16T21:18:14.046Z,40.10
2019-02-16T21:21:22.882Z,46.90
2019-02-16T21:24:30.381Z,47.67
2019-02-16T21:27:33.361Z,42.77
2019-02-16T21:30:41.214Z,45.53
2019-02-16T21:33:49.374Z,41.53
2019-02-16T21:36:46.169Z,43.90
2019-02-16T21:39:47.083Z,46.37
2019-02-16T21:42:48.730Z,47.10
2019-02-16T21:45:57.239Z,47.83
2019-02-16T21:49:26.343Z,40.57
2019-02-16T21:52:22.951Z,48.80
2019-02-16T21:55:23.656Z,54.03
2019-02-16T21:58:27.163Z,47.50
2019-02-16T22:01:35.478Z,41.70
2019-02-16T22:04:48.901Z,43.03
2019-02-16T22:07:54.747Z,46.00
2019-02-16T22:11:06.177Z,42.20
2019-02-16T22:13:56.573Z,45.20
2019-02-16T22:16:46.279Z,48.57
2019-02-16T22:19:35.707Z,41.57
2019-02-16T22:22:24.207Z,47.10
2019-02-16T22:25:13.216Z,43.90
2019-02-16T22:28:03.387Z,48.50
2019-02-16T22:30:52.615Z,42.20
2019-02-16T22:33:44.626Z,49.33
2019-02-16T22:36:33.228Z,43.37
2019-02-16T22:39:22.859Z,42.00
2019-02-16T22:42:12.313Z,41.27
2019-02-16T22:45:04.215Z,41.47
2019-02-16T22:47:53.612Z,35.53
2019-02-16T22:50:44.845Z,42.03
2019-02-16T22:53:34.761Z,40.07
2019-02-16T22:56:23.981Z,41.80
2019-02-16T22:59:13.056Z,43.40
2019-02-16T23:02:02.764Z,41.83
2019-02-16T23:04:52.275Z,40.73
2019-02-16T23:07:41.703Z,44.87
2019-02-16T23:10:34.714Z,40.30
2019-02-16T23:13:23.286Z,38.93
2019-02-16T23:16:12.683Z,37.03
2019-02-16T23:19:02.634Z,38.70
2019-02-16T23:21:52.778Z,34.57
2019-02-16T23:24:42.294Z,42.60
2019-02-16T23:27:34.015Z,34.40
2019-02-16T23:30:23.524Z,48.30
2019-02-16T23:33:12.830Z,29.37
2019-02-16T23:36:02.955Z,30.20
2019-02-16T23:38:52.019Z,29.00
2019-02-16T23:41:43.452Z,41.03
2019-02-16T23:44:33.100Z,36.57
2019-02-16T23:47:22.494Z,59.93
2019-02-16T23:50:15.679Z,58.70
2019-02-16T23:53:05.252Z,48.37
2019-02-16T23:55:54.396Z,45.20
2019-02-16T23:58:49.343Z,27.47
